Time;durP1;ratioP1;P1;durP2;ratioP2;P2;SDS_P1;SDS_P2;PMS_P1;PMS_P2;Temp;Humidity;BMP_temperature;BMP_pressure;BME280_temperature;BME280_humidity;BME280_pressure;Samples;Min_cycle;Max_cycle;Signal;HPM_P1;HPM_P2
2021/04/30 00:02:21;;;;;;;6.85;2.60;;;;;;;15.32;85.35;92981.00;5133082;27;19919;-80
2021/04/30 00:04:47;;;;;;;;;;;;;;;15.37;84.84;92977.69;5133840;27;20066;-81
2021/04/30 00:07:14;;;;;;;9.98;2.70;;;;;;;15.31;84.81;92983.81;5133185;27;19968;-81
2021/04/30 00:09:41;;;;;;;4.35;2.10;;;;;;;15.31;84.72;92976.06;5133256;27;20042;-81
2021/04/30 00:12:08;;;;;;;5.25;2.20;;;;;;;15.30;84.72;92983.06;5133377;27;20039;-80
2021/04/30 00:14:34;;;;;;;5.30;2.50;;;;;;;15.26;84.66;92981.97;5132082;27;20050;-78
2021/04/30 00:17:01;;;;;;;5.03;2.25;;;;;;;15.25;84.69;92982.22;5132805;27;20487;-78
2021/04/30 00:19:27;;;;;;;;;;;;;;;15.25;84.56;92985.59;5133436;27;20047;-79
2021/04/30 00:21:53;;;;;;;4.95;2.40;;;;;;;15.17;84.94;92981.63;5132976;27;19962;-78
2021/04/30 00:24:19;;;;;;;3.35;2.15;;;;;;;15.17;84.91;92983.44;5132636;27;20513;-78
2021/04/30 00:26:47;;;;;;;3.92;1.95;;;;;;;15.16;84.62;92976.69;5116667;27;20101;-78
2021/04/30 00:29:13;;;;;;;4.63;2.85;;;;;;;15.24;84.61;92989.22;5112129;28;20047;-78
2021/04/30 00:31:42;;;;;;;7.13;3.65;;;;;;;15.23;84.29;92987.66;5111936;28;20044;-78
2021/04/30 00:34:08;;;;;;;3.10;2.22;;;;;;;15.24;83.85;92989.22;5111701;28;20054;-77
2021/04/30 00:36:35;;;;;;;9.77;2.60;;;;;;;15.21;83.87;92985.31;5112102;28;20411;-77
2021/04/30 00:39:02;;;;;;;5.00;2.40;;;;;;;15.23;83.91;92996.19;5111788;28;20055;-78
2021/04/30 00:41:29;;;;;;;5.35;2.50;;;;;;;15.23;83.75;92990.25;5111899;28;20066;-78
2021/04/30 00:43:57;;;;;;;5.47;2.30;;;;;;;15.19;84.12;92996.94;5112093;28;20051;-77
2021/04/30 00:46:24;;;;;;;6.18;2.20;;;;;;;15.21;84.45;92990.47;5111831;28;20090;-78
2021/04/30 00:48:50;;;;;;;6.40;2.55;;;;;;;15.17;84.47;92993.78;5111712;28;20116;-79
2021/04/30 00:51:16;;;;;;;6.28;2.72;;;;;;;15.15;84.74;92995.84;5111580;28;20054;-79
2021/04/30 00:53:42;;;;;;;;;;;;;;;15.13;85.07;92992.72;5111915;28;20092;-79
2021/04/30 00:56:08;;;;;;;8.82;2.47;;;;;;;15.10;85.01;92999.94;5111714;28;19923;-79
2021/04/30 00:58:35;;;;;;;3.35;1.77;;;;;;;15.15;85.54;93001.00;5111776;28;20047;-79
2021/04/30 01:01:04;;;;;;;7.18;2.58;;;;;;;15.21;85.19;93008.59;5111625;28;20074;-79
2021/04/30 01:03:30;;;;;;;4.43;2.42;;;;;;;15.18;84.90;93001.31;5111646;28;20051;-79
2021/04/30 01:05:57;;;;;;;4.72;2.72;;;;;;;15.28;84.52;93018.75;5111733;28;20048;-80
2021/04/30 01:08:23;;;;;;;3.78;2.50;;;;;;;15.27;84.03;93004.25;5111227;28;20059;-80
2021/04/30 01:10:49;;;;;;;5.20;2.70;;;;;;;15.28;83.77;93003.22;5111334;28;20047;-80
2021/04/30 01:13:16;;;;;;;2.83;2.13;;;;;;;15.23;82.78;92995.44;5111650;28;20096;-80
2021/04/30 01:15:42;;;;;;;8.38;2.28;;;;;;;15.30;82.98;93013.31;5111180;28;20506;-80
2021/04/30 01:18:09;;;;;;;3.55;2.20;;;;;;;15.02;82.63;92976.31;5111159;28;20055;-80
2021/04/30 01:20:36;;;;;;;9.68;2.78;;;;;;;15.27;82.96;93012.00;5111124;28;20379;-82
2021/04/30 01:23:03;;;;;;;6.60;2.75;;;;;;;15.22;83.09;92996.44;5111289;28;20058;-81
2021/04/30 01:25:34;;;;;;;5.07;2.42;;;;;;;15.28;82.91;93005.81;5111023;28;20048;-82
2021/04/30 01:28:02;;;;;;;6.75;2.60;;;;;;;15.30;82.25;93008.16;5110015;28;20062;-81
2021/04/30 01:30:31;;;;;;;4.95;2.20;;;;;;;15.26;82.76;93009.66;5111082;27;20079;-81
2021/04/30 01:32:58;;;;;;;8.32;2.85;;;;;;;15.26;83.05;93005.28;5110914;28;20464;-80
2021/04/30 01:35:27;;;;;;;3.53;2.10;;;;;;;15.18;82.89;93003.13;5111107;27;20058;-78
2021/04/30 01:37:55;;;;;;;7.72;3.38;;;;;;;15.18;82.44;93016.84;5112170;27;20446;-78
2021/04/30 01:40:24;;;;;;;11.05;3.58;;;;;;;15.17;82.59;93014.47;5110461;28;20387;-79
2021/04/30 01:42:59;;;;;;;6.80;2.53;;;;;;;15.17;82.25;93014.47;5110440;28;20590;-79
2021/04/30 01:45:27;;;;;;;8.10;3.35;;;;;;;15.15;82.48;93019.13;5110398;28;20422;-79
2021/04/30 01:47:53;;;;;;;6.07;2.70;;;;;;;15.07;82.48;93009.97;5110643;28;20047;-81
2021/04/30 01:50:20;;;;;;;6.25;2.35;;;;;;;15.12;82.82;93022.97;5110481;28;20050;-80
2021/04/30 01:52:46;;;;;;;6.75;2.78;;;;;;;15.13;82.67;93016.00;5110706;28;20047;-80
2021/04/30 01:55:13;;;;;;;6.90;3.20;;;;;;;14.89;83.71;92998.94;5110147;28;20047;-80
2021/04/30 01:57:44;;;;;;;12.27;3.65;;;;;;;14.88;83.97;92999.97;5110584;28;20051;-80
2021/04/30 02:00:19;;;;;;;8.75;4.07;;;;;;;14.83;84.84;93008.41;5110255;28;20047;-80
2021/04/30 02:02:47;;;;;;;6.55;3.00;;;;;;;14.78;85.02;93007.59;5110550;28;20043;-80
2021/04/30 02:05:13;;;;;;;6.07;2.83;;;;;;;14.67;85.47;93010.03;5110376;28;20052;-80
2021/04/30 02:07:40;;;;;;;4.93;2.30;;;;;;;14.63;86.24;93011.50;5110398;28;20039;-80
2021/04/30 02:10:10;;;;;;;8.10;3.17;;;;;;;14.60;86.34;93017.19;5110057;28;20048;-81
2021/04/30 02:12:37;;;;;;;9.77;3.75;;;;;;;14.48;86.57;93022.44;5110468;28;20429;-80
2021/04/30 02:15:04;;;;;;;;;;;;;;;14.39;87.38;93027.22;5110870;28;20048;-80
2021/04/30 02:17:31;;;;;;;3.55;2.08;;;;;;;14.27;88.70;93021.38;5110090;28;20368;-81
2021/04/30 02:19:57;;;;;;;8.18;2.95;;;;;;;14.20;89.39;93031.88;5110070;28;20043;-81
2021/04/30 02:22:24;;;;;;;2.88;1.80;;;;;;;14.10;90.18;93027.34;5110153;28;20047;-80
2021/04/30 02:24:50;;;;;;;6.70;2.72;;;;;;;13.90;90.24;92999.44;5109964;28;20465;-81
2021/04/30 02:27:17;;;;;;;6.85;2.35;;;;;;;13.98;90.95;93024.84;5109881;28;20051;-81
2021/04/30 02:29:43;;;;;;;;;;;;;;;13.94;90.92;93026.34;5110300;28;20434;-81
2021/04/30 02:32:10;;;;;;;5.15;2.15;;;;;;;13.70;91.96;92995.50;5110125;28;20356;-80
2021/04/30 02:34:36;;;;;;;5.40;2.58;;;;;;;13.83;92.82;93022.00;5109725;28;20062;-80
2021/04/30 02:37:02;;;;;;;;;;;;;;;13.78;92.48;93020.13;5110531;28;20048;-80
2021/04/30 02:39:28;;;;;;;4.63;2.15;;;;;;;13.69;93.57;93021.53;5109690;28;19931;-80
2021/04/30 02:41:55;;;;;;;;;;;;;;;13.69;94.47;93027.50;5110354;28;20097;-80
2021/04/30 02:44:21;;;;;;;3.47;1.77;;;;;;;13.56;94.06;93020.06;5109720;28;19919;-80
2021/04/30 02:46:47;;;;;;;;;;;;;;;13.61;94.21;93030.47;5110325;28;20108;-80
2021/04/30 02:49:16;;;;;;;6.30;2.33;;;;;;;13.58;93.81;93042.03;5109720;28;19924;-80
2021/04/30 02:51:42;;;;;;;7.63;3.00;;;;;;;13.33;94.43;93009.56;5110166;28;20051;-80
2021/04/30 02:54:09;;;;;;;6.22;2.70;;;;;;;13.53;93.56;93038.56;5109937;28;20055;-79
2021/04/30 02:56:36;;;;;;;8.48;2.45;;;;;;;13.48;94.12;93044.44;5109647;28;20487;-80
2021/04/30 02:59:04;;;;;;;9.38;2.92;;;;;;;13.44;93.60;93041.50;5109833;28;20150;-81
2021/04/30 03:01:31;;;;;;;5.72;2.08;;;;;;;13.36;94.13;93037.50;5109536;28;20422;-81
2021/04/30 03:03:57;;;;;;;10.70;3.28;;;;;;;13.28;94.33;93035.28;5109582;28;20047;-80
2021/04/30 03:06:25;;;;;;;11.70;5.72;;;;;;;13.32;94.86;93045.91;5109991;28;20048;-80
2021/04/30 03:08:53;;;;;;;9.80;3.78;;;;;;;13.24;95.42;93052.22;5109478;28;20179;-79
2021/04/30 03:11:19;;;;;;;10.35;3.03;;;;;;;13.24;94.80;93054.78;5109550;28;20071;-79
2021/04/30 03:13:46;;;;;;;7.35;3.15;;;;;;;13.27;93.72;93069.81;5109521;28;20047;-80
2021/04/30 03:16:13;;;;;;;5.70;2.92;;;;;;;13.24;93.89;93065.09;5109544;28;20043;-79
2021/04/30 03:18:39;;;;;;;6.07;3.97;;;;;;;13.08;93.91;93049.38;5109841;28;20109;-79
2021/04/30 03:21:05;;;;;;;5.38;3.17;;;;;;;13.13;94.60;93063.34;5109377;28;20055;-78
2021/04/30 03:23:32;;;;;;;;;;;;;;;13.13;94.50;93076.25;5109772;28;20487;-78
2021/04/30 03:26:00;;;;;;;4.65;2.30;;;;;;;13.09;94.99;93081.09;5109503;28;19942;-79
2021/04/30 03:28:26;;;;;;;5.68;2.47;;;;;;;13.01;95.23;93081.44;5109531;28;20097;-80
2021/04/30 03:30:52;;;;;;;;;;;;;;;12.93;95.58;93078.22;5109457;28;20039;-79
2021/04/30 03:33:18;;;;;;;4.30;2.55;;;;;;;12.86;96.27;93087.09;5109612;28;20067;-79
2021/04/30 03:35:44;;;;;;;;;;;;;;;12.78;96.78;93091.56;5109965;28;20047;-80
2021/04/30 03:38:11;;;;;;;4.43;2.53;;;;;;;12.71;97.89;93090.91;5109038;28;19926;-80
2021/04/30 03:40:38;;;;;;;10.32;3.70;;;;;;;12.66;97.88;93085.63;5109389;28;20126;-81
2021/04/30 03:43:04;;;;;;;9.57;3.28;;;;;;;12.57;97.90;93082.63;5109197;28;20054;-80
2021/04/30 03:45:30;;;;;;;;;;;;;;;12.65;97.53;93100.28;5109609;28;20047;-80
2021/04/30 03:47:56;;;;;;;12.40;4.20;;;;;;;12.61;98.10;93103.56;5109346;28;19924;-80
2021/04/30 03:50:23;;;;;;;10.38;3.58;;;;;;;12.60;98.44;93092.47;5110643;28;20058;-81
2021/04/30 03:52:49;;;;;;;;;;;;;;;12.56;97.88;93086.97;5113126;28;20050;-81
2021/04/30 03:55:15;;;;;;;14.48;2.75;;;;;;;12.39;98.49;93079.16;5113273;28;19923;-81
2021/04/30 03:57:42;;;;;;;;;;;;;;;12.54;98.34;93099.31;5113327;28;20092;-80
2021/04/30 04:00:09;;;;;;;6.57;2.55;;;;;;;12.47;99.40;93098.63;5112877;28;19924;-80
2021/04/30 04:02:36;;;;;;;10.82;3.17;;;;;;;12.60;99.07;93115.69;5112457;28;20487;-80
2021/04/30 04:05:02;;;;;;;;;;;;;;;12.72;98.38;93117.47;5112909;28;20063;-79
2021/04/30 04:07:28;;;;;;;5.25;2.90;;;;;;;12.74;98.43;93121.38;5112758;28;19920;-79
2021/04/30 04:09:54;;;;;;;;;;;;;;;12.90;97.63;93126.84;5113176;27;20047;-79
2021/04/30 04:12:20;;;;;;;5.18;2.10;;;;;;;12.96;96.63;93129.31;5112628;28;20280;-80
2021/04/30 04:14:48;;;;;;;14.35;4.35;;;;;;;13.08;95.97;93138.81;5112614;28;20048;-79
2021/04/30 04:17:16;;;;;;;4.53;2.30;;;;;;;13.17;95.13;93147.00;5112711;28;20047;-80
2021/04/30 04:19:47;;;;;;;4.78;2.53;;;;;;;13.29;94.64;93152.16;5112259;28;20039;-80
2021/04/30 04:22:14;;;;;;;8.65;2.70;;;;;;;13.44;93.77;93151.66;5112357;28;20481;-79
2021/04/30 04:24:40;;;;;;;;;;;;;;;13.56;93.13;93157.59;5112917;28;20426;-79
2021/04/30 04:27:07;;;;;;;7.60;3.22;;;;;;;13.60;93.19;93158.72;5112367;28;19969;-80
2021/04/30 04:29:33;;;;;;;4.63;2.95;;;;;;;13.73;91.84;93167.19;5112098;28;20050;-80
2021/04/30 04:32:00;;;;;;;;;;;;;;;13.81;90.17;93174.59;5112394;28;20052;-79
2021/04/30 04:34:26;;;;;;;3.60;1.90;;;;;;;13.85;89.75;93174.91;5112021;28;20402;-81
2021/04/30 04:36:52;;;;;;;5.18;2.33;;;;;;;13.93;90.23;93169.34;5111701;28;20047;-80
2021/04/30 04:39:19;;;;;;;10.05;3.47;;;;;;;14.08;91.07;93179.19;5111830;28;20043;-80
2021/04/30 04:41:45;;;;;;;8.27;4.05;;;;;;;14.23;89.11;93185.63;5111989;28;20055;-80
2021/04/30 04:44:12;;;;;;;8.63;3.08;;;;;;;14.42;89.72;93187.00;5111960;28;20066;-81
2021/04/30 04:46:38;;;;;;;11.25;3.40;;;;;;;14.58;88.00;93197.56;5111753;28;20048;-81
2021/04/30 04:49:05;;;;;;;9.05;4.30;;;;;;;14.84;86.92;93203.16;5111820;28;20512;-81
2021/04/30 04:51:32;;;;;;;7.15;3.67;;;;;;;15.01;86.75;93197.97;5111758;28;20051;-80
2021/04/30 04:53:58;;;;;;;11.40;3.42;;;;;;;15.27;84.18;93190.56;5111862;28;20052;-80
2021/04/30 04:56:26;;;;;;;5.07;3.00;;;;;;;15.49;81.99;93176.84;5111519;28;20080;-81
2021/04/30 04:58:52;;;;;;;4.28;2.33;;;;;;;15.75;80.72;93197.88;5111563;28;20093;-80
2021/04/30 05:01:19;;;;;;;6.78;3.45;;;;;;;15.90;78.96;93181.72;5111340;28;20052;-80
2021/04/30 05:03:45;;;;;;;4.88;2.45;;;;;;;16.08;78.48;93165.09;5111371;28;20063;-80
2021/04/30 05:06:13;;;;;;;7.68;3.28;;;;;;;16.45;75.73;93173.16;5111442;28;20051;-81
2021/04/30 05:08:40;;;;;;;11.32;3.65;;;;;;;16.79;74.97;93171.09;5111280;28;20047;-81
2021/04/30 05:11:06;;;;;;;4.57;1.58;;;;;;;17.01;72.60;93161.63;5111515;28;20614;-81
2021/04/30 05:13:33;;;;;;;4.30;2.08;;;;;;;17.25;70.57;93158.69;5111011;28;20040;-80
2021/04/30 05:16:00;;;;;;;4.25;1.80;;;;;;;17.51;67.99;93154.38;5111391;28;20046;-81
2021/04/30 05:18:26;;;;;;;8.48;1.65;;;;;;;17.89;66.36;93149.03;5111421;28;20043;-81
2021/04/30 05:20:54;;;;;;;4.30;1.50;;;;;;;18.16;63.12;93155.88;5110742;28;20062;-81
2021/04/30 05:23:21;;;;;;;6.72;1.25;;;;;;;18.48;61.49;93154.06;5111298;28;20043;-81
2021/04/30 05:25:49;;;;;;;3.42;1.75;;;;;;;18.79;60.64;93159.28;5110821;28;20050;-82
2021/04/30 05:28:16;;;;;;;3.97;1.35;;;;;;;18.93;57.40;93136.84;5110815;28;20498;-83
2021/04/30 05:30:42;;;;;;;5.00;1.27;;;;;;;19.22;56.67;93156.34;5111025;28;20407;-82
2021/04/30 05:33:08;;;;;;;;;;;;;;;19.36;55.64;93159.19;5111478;28;20044;-82
2021/04/30 05:35:35;;;;;;;3.63;1.70;;;;;;;19.52;55.01;93154.69;5111020;28;19926;-82
2021/04/30 05:38:01;;;;;;;8.70;1.20;;;;;;;19.72;51.99;93155.66;5110730;28;20121;-82
2021/04/30 05:40:28;;;;;;;8.32;1.88;;;;;;;19.84;51.55;93166.53;5110809;28;20111;-82
2021/04/30 05:42:55;;;;;;;4.70;0.82;;;;;;;20.04;50.92;93177.91;5110846;28;20067;-82
2021/04/30 05:45:21;;;;;;;1.85;0.80;;;;;;;20.22;49.61;93170.53;5110764;28;20044;-82
2021/04/30 05:47:47;;;;;;;4.63;1.27;;;;;;;20.47;46.61;93164.38;5110741;28;20043;-83
2021/04/30 05:50:14;;;;;;;4.15;0.80;;;;;;;20.73;48.11;93158.91;5110642;28;20437;-85
2021/04/30 05:52:41;;;;;;;1.70;0.90;;;;;;;21.05;46.04;93180.34;5110810;28;20096;-82
2021/04/30 05:55:09;;;;;;;5.20;0.90;;;;;;;21.29;44.98;93167.31;5110768;28;20052;-82
2021/04/30 05:57:37;;;;;;;8.02;1.05;;;;;;;21.69;46.18;93171.56;5110392;28;20517;-84
2021/04/30 06:00:05;;;;;;;7.60;1.30;;;;;;;21.77;44.66;93139.63;5110359;28;20501;-84
2021/04/30 06:02:31;;;;;;;4.22;1.40;;;;;;;21.99;44.72;93167.81;5110299;28;20498;-84
2021/04/30 06:04:58;;;;;;;2.75;1.00;;;;;;;21.81;42.57;93176.44;5110410;28;20047;-84
2021/04/30 06:07:25;;;;;;;8.45;1.35;;;;;;;21.99;40.90;93174.91;5110177;28;20104;-84
2021/04/30 06:09:51;;;;;;;4.45;0.75;;;;;;;22.02;39.33;93167.25;5110188;28;20039;-83
2021/04/30 06:12:17;;;;;;;3.60;1.30;;;;;;;22.18;40.67;93172.28;5109869;28;20047;-84
2021/04/30 06:14:44;;;;;;;4.45;1.10;;;;;;;22.28;42.04;93166.13;5109947;28;20048;-83
2021/04/30 06:17:11;;;;;;;5.15;0.80;;;;;;;22.09;41.58;93169.53;5109817;28;20062;-84
2021/04/30 06:19:37;;;;;;;1.70;0.52;;;;;;;21.94;38.50;93167.13;5110623;28;20043;-84
2021/04/30 06:22:03;;;;;;;2.58;0.47;;;;;;;22.42;38.85;93187.13;5110502;28;20043;-84
2021/04/30 06:24:30;;;;;;;2.35;0.98;;;;;;;22.58;39.19;93187.69;5110032;28;20052;-84
2021/04/30 06:26:56;;;;;;;3.00;1.00;;;;;;;22.64;41.98;93188.41;5109689;27;20055;-82
2021/04/30 06:29:22;;;;;;;1.63;1.00;;;;;;;22.59;38.38;93178.00;5128422;27;20486;-82
2021/04/30 06:31:49;;;;;;;3.70;0.77;;;;;;;22.81;37.42;93169.53;5129316;27;20451;-89
2021/04/30 06:34:16;;;;;;;7.05;1.40;;;;;;;23.33;38.89;93187.03;5130192;27;20405;-82
2021/04/30 06:36:42;;;;;;;9.23;8.30;;;;;;;23.61;36.04;93174.69;5130061;27;20489;-84
2021/04/30 06:39:08;;;;;;;5.63;1.15;;;;;;;23.46;36.11;93174.97;5130404;27;20043;-85
2021/04/30 06:41:35;;;;;;;5.40;1.70;;;;;;;23.73;40.35;93184.69;5130290;27;20425;-84
2021/04/30 06:44:01;;;;;;;2.58;1.00;;;;;;;24.03;39.81;93181.75;5130339;27;20051;-84
2021/04/30 06:46:27;;;;;;;2.05;0.77;;;;;;;24.26;40.75;93176.56;5129941;28;20107;-84
2021/04/30 06:48:55;;;;;;;3.53;1.10;;;;;;;24.36;41.30;93183.41;5130398;27;20058;-83
2021/04/30 06:51:21;;;;;;;4.80;1.35;;;;;;;23.98;41.22;93139.88;5130257;28;20054;-84
2021/04/30 06:53:48;;;;;;;3.83;1.42;;;;;;;24.22;41.61;93189.50;5130085;27;20545;-83
2021/04/30 06:56:14;;;;;;;3.63;1.02;;;;;;;24.22;41.68;93179.00;5130274;28;20043;-83
2021/04/30 06:58:41;;;;;;;5.25;1.13;;;;;;;24.39;41.39;93183.59;5130245;28;20439;-84
2021/04/30 07:01:09;;;;;;;6.90;1.50;;;;;;;24.48;40.70;93180.28;5130129;28;20047;-86
2021/04/30 07:03:35;;;;;;;1.95;0.85;;;;;;;24.77;38.99;93171.19;5130207;28;20047;-85
2021/04/30 07:06:03;;;;;;;3.38;0.70;;;;;;;24.95;37.72;93175.50;5130031;28;20497;-86
2021/04/30 07:08:30;;;;;;;2.80;0.80;;;;;;;24.97;37.69;93175.19;5129993;28;20047;-85
2021/04/30 07:10:56;;;;;;;6.22;1.40;;;;;;;25.07;35.29;93179.41;5130095;28;20088;-85
2021/04/30 07:13:22;;;;;;;3.92;0.77;;;;;;;25.38;37.04;93173.38;5130145;27;20054;-85
2021/04/30 07:15:49;;;;;;;3.28;1.13;;;;;;;25.69;36.79;93183.06;5129988;27;20054;-84
2021/04/30 07:18:15;;;;;;;4.47;1.08;;;;;;;25.96;35.13;93185.78;5129776;27;20136;-84
2021/04/30 07:20:41;;;;;;;4.05;1.10;;;;;;;25.96;33.73;93157.59;5129465;28;20048;-84
2021/04/30 07:23:08;;;;;;;4.38;0.80;;;;;;;26.35;35.79;93181.50;5129453;27;20092;-85
2021/04/30 07:25:35;;;;;;;3.33;0.85;;;;;;;26.30;33.59;93167.72;5132042;27;20047;-85
2021/04/30 07:28:01;;;;;;;1.45;0.70;;;;;;;26.49;33.00;93173.47;5134013;27;20047;-83
2021/04/30 07:30:27;;;;;;;5.00;0.88;;;;;;;26.50;33.84;93167.09;5133826;27;20050;-85
2021/04/30 07:32:53;;;;;;;4.40;0.82;;;;;;;26.47;31.23;93164.31;5133580;27;20050;-85
2021/04/30 07:35:20;;;;;;;3.58;0.90;;;;;;;26.61;33.11;93162.28;5133408;27;20080;-85
2021/04/30 07:37:46;;;;;;;7.07;1.88;;;;;;;26.55;34.37;93174.84;5133708;27;20091;-86
2021/04/30 07:40:14;;;;;;;8.32;1.52;;;;;;;26.70;34.70;93177.31;5133576;27;20051;-85
2021/04/30 07:42:40;;;;;;;7.15;1.55;;;;;;;26.77;34.32;93167.84;5133539;27;20463;-85
2021/04/30 07:45:07;;;;;;;3.38;1.00;;;;;;;26.77;34.92;93172.31;5133402;27;20104;-85
2021/04/30 07:47:34;;;;;;;2.63;0.75;;;;;;;27.02;34.35;93165.47;5133515;27;20047;-85
2021/04/30 07:50:00;;;;;;;2.90;0.80;;;;;;;27.06;33.83;93158.50;5133634;27;20107;-86
2021/04/30 07:52:26;;;;;;;3.97;0.90;;;;;;;27.14;33.47;93161.41;5133385;27;20512;-85
2021/04/30 07:54:53;;;;;;;3.08;0.55;;;;;;;27.29;32.07;93160.09;5133163;27;20043;-85
2021/04/30 07:57:20;;;;;;;2.65;0.77;;;;;;;27.29;31.79;93141.66;5133352;27;20406;-85
2021/04/30 07:59:46;;;;;;;1.92;0.55;;;;;;;26.90;31.49;93102.09;5133318;27;20047;-86
2021/04/30 08:02:13;;;;;;;1.02;0.35;;;;;;;27.19;31.05;93155.97;5133209;27;20077;-86
2021/04/30 08:04:39;;;;;;;4.18;0.73;;;;;;;26.98;30.45;93130.28;5133758;27;20069;-87
2021/04/30 08:07:06;;;;;;;2.70;0.65;;;;;;;27.20;30.64;93152.25;5149719;27;20052;-87
2021/04/30 08:09:32;;;;;;;2.25;0.52;;;;;;;27.05;31.70;93151.69;5157955;27;20075;-87
2021/04/30 08:11:58;;;;;;;1.35;0.63;;;;;;;26.95;31.61;93154.66;5145184;27;20050;-85
2021/04/30 08:14:26;;;;;;;2.28;1.02;;;;;;;26.92;31.39;93150.00;5132709;27;20490;-85
2021/04/30 08:16:53;;;;;;;1.73;0.75;;;;;;;26.92;30.89;93142.09;5132990;27;20043;-85
2021/04/30 08:19:19;;;;;;;2.33;0.50;;;;;;;27.42;30.58;93145.97;5132911;27;20051;-85
2021/04/30 08:21:45;;;;;;;4.15;0.90;;;;;;;27.67;29.64;93126.94;5133087;27;20111;-85
2021/04/30 08:24:12;;;;;;;2.50;0.70;;;;;;;27.91;30.66;93136.09;5132633;27;20039;-85
2021/04/30 08:26:38;;;;;;;4.82;0.90;;;;;;;27.92;30.50;93124.44;5132894;27;20051;-85
2021/04/30 08:29:06;;;;;;;2.10;1.08;;;;;;;27.82;27.94;93136.16;5132981;27;20435;-85
2021/04/30 08:31:34;;;;;;;2.80;1.15;;;;;;;27.74;29.30;93133.25;5132763;27;20054;-85
2021/04/30 08:34:00;;;;;;;13.93;1.98;;;;;;;27.79;30.21;93113.03;5132555;27;20043;-86
2021/04/30 08:36:26;;;;;;;4.38;1.38;;;;;;;27.97;29.84;93117.09;5131816;27;20054;-85
2021/04/30 08:38:53;;;;;;;5.03;1.02;;;;;;;28.23;27.71;93102.94;5132544;27;20051;-89
2021/04/30 08:41:19;;;;;;;9.77;1.25;;;;;;;28.62;28.21;93131.81;5132741;27;20074;-86
2021/04/30 08:43:47;;;;;;;7.28;1.35;;;;;;;28.83;28.38;93125.69;5132543;27;20433;-85
2021/04/30 08:46:14;;;;;;;4.10;0.80;;;;;;;28.41;28.25;93118.63;5132370;27;20055;-86
2021/04/30 08:48:42;;;;;;;5.32;0.77;;;;;;;28.21;29.64;93122.81;5132152;27;20050;-85
2021/04/30 08:51:08;;;;;;;3.90;1.10;;;;;;;28.07;29.30;93120.44;5132551;27;20425;-86
2021/04/30 08:53:34;;;;;;;3.53;0.45;;;;;;;28.06;29.33;93116.25;5132483;27;20108;-84
2021/04/30 08:56:03;;;;;;;4.30;0.93;;;;;;;28.23;29.28;93115.38;5132063;27;20055;-86
2021/04/30 08:58:30;;;;;;;4.43;1.00;;;;;;;28.15;29.02;93095.84;5131727;27;20047;-84
2021/04/30 09:00:57;;;;;;;1.60;0.60;;;;;;;28.58;28.06;93112.41;5131833;27;20043;-86
2021/04/30 09:03:23;;;;;;;1.88;0.90;;;;;;;28.64;28.61;93116.41;5131789;27;20050;-86
2021/04/30 09:05:55;;;;;;;3.20;0.80;;;;;;;28.53;27.58;93104.69;5132060;27;20051;-87
2021/04/30 09:08:21;;;;;;;3.70;1.15;;;;;;;28.68;28.23;93095.38;5131774;27;20135;-88
2021/04/30 09:10:49;;;;;;;2.65;1.10;;;;;;;28.71;28.37;93094.72;5132048;27;20050;-87
2021/04/30 09:13:18;;;;;;;3.03;0.70;;;;;;;28.49;28.42;93091.38;5131736;27;20087;-87
2021/04/30 09:15:47;;;;;;;2.28;1.02;;;;;;;28.32;29.26;93099.47;5132008;27;20254;-85
2021/04/30 09:18:15;;;;;;;3.00;0.50;;;;;;;28.12;29.38;93094.63;5131980;27;20117;-85
2021/04/30 09:20:41;;;;;;;7.32;1.60;;;;;;;27.86;29.79;93108.78;5131781;27;20050;-85
2021/04/30 09:23:33;;;;;;;4.00;1.25;;;;;;;27.78;30.29;93096.44;5131641;27;20111;-87
2021/04/30 09:26:00;;;;;;;2.90;1.02;;;;;;;27.85;29.21;93109.09;5131903;27;20819;-87
2021/04/30 09:28:26;;;;;;;1.42;0.60;;;;;;;28.09;29.00;93103.19;5131886;27;20043;-88
2021/04/30 09:30:53;;;;;;;3.05;0.93;;;;;;;28.38;28.69;93082.31;5131569;27;20383;-86
2021/04/30 09:33:20;;;;;;;4.32;0.80;;;;;;;28.78;27.97;93083.59;5131677;27;20051;-87
2021/04/30 09:35:48;;;;;;;0.95;0.38;;;;;;;28.88;27.71;93085.09;5130972;27;20565;-89
2021/04/30 09:38:19;;;;;;;1.52;0.40;;;;;;;29.00;28.31;93082.44;5131770;27;20131;-88
2021/04/30 09:40:48;;;;;;;2.30;0.88;;;;;;;28.73;27.63;93092.53;5131284;27;20097;-87
2021/04/30 09:43:16;;;;;;;2.72;0.32;;;;;;;28.82;27.79;93081.84;5131629;27;20047;-88
2021/04/30 09:45:45;;;;;;;1.80;0.60;;;;;;;29.19;27.35;93081.13;5131917;27;20107;-87
2021/04/30 09:48:13;;;;;;;5.88;0.85;;;;;;;29.58;26.25;93092.16;5129994;27;20093;-87
2021/04/30 09:50:41;;;;;;;1.70;0.65;;;;;;;29.60;26.15;93084.66;5131371;27;20045;-89
2021/04/30 09:53:10;;;;;;;6.03;1.00;;;;;;;29.54;25.07;93083.38;5127351;27;20051;-87
2021/04/30 09:55:45;;;;;;;2.67;0.60;;;;;;;29.65;26.93;93077.59;5129020;27;20039;-86
2021/04/30 09:58:18;;;;;;;2.38;0.80;;;;;;;29.78;26.54;93073.03;5130755;27;20043;-86
2021/04/30 10:00:46;;;;;;;2.55;0.73;;;;;;;29.46;26.82;93058.53;5131022;27;20043;-89
2021/04/30 10:03:14;;;;;;;1.00;0.50;;;;;;;29.16;27.99;93058.75;5130643;27;20047;-87
2021/04/30 10:06:03;;;;;;;8.63;1.20;;;;;;;29.77;26.76;93064.34;5130834;27;20506;-87
2021/04/30 10:08:29;;;;;;;4.88;1.02;;;;;;;29.69;25.93;93052.00;5130861;27;20055;-86
2021/04/30 10:10:56;;;;;;;4.28;0.50;;;;;;;28.92;26.89;93041.00;5130865;27;20409;-85
2021/04/30 10:13:23;;;;;;;1.90;0.55;;;;;;;29.03;27.55;93058.00;5130563;27;20089;-88
2021/04/30 10:15:50;;;;;;;1.77;0.52;;;;;;;29.12;28.30;93060.53;5130535;27;20086;-87
2021/04/30 10:18:18;;;;;;;4.05;0.85;;;;;;;29.10;27.36;93035.53;5130710;27;20047;-90
2021/04/30 10:20:44;;;;;;;1.90;0.70;;;;;;;29.16;26.99;93036.84;5122004;27;20457;-87
2021/04/30 10:23:17;;;;;;;2.95;0.52;;;;;;;29.54;27.24;93048.19;5109905;28;20047;-87
2021/04/30 10:25:46;;;;;;;1.67;0.57;;;;;;;28.93;27.18;93040.69;5127160;27;20066;-87
2021/04/30 10:28:15;;;;;;;3.88;1.13;;;;;;;28.44;27.80;93032.66;5130453;27;20047;-87
2021/04/30 10:30:49;;;;;;;8.38;1.00;;;;;;;28.27;28.62;93029.88;5130193;27;20046;-86
2021/04/30 10:33:21;;;;;;;8.70;1.30;;;;;;;28.11;28.96;93045.56;5130398;27;20516;-86
2021/04/30 10:35:56;;;;;;;2.72;1.23;;;;;;;28.14;28.83;93023.00;5130612;27;20051;-88
2021/04/30 10:38:25;;;;;;;3.83;0.40;;;;;;;28.57;28.29;93014.97;5130114;27;20505;-85
2021/04/30 10:41:00;;;;;;;4.93;0.88;;;;;;;28.31;28.30;93018.69;5126049;27;20051;-86
2021/04/30 10:43:27;;;;;;;3.65;0.70;;;;;;;28.64;28.49;93018.63;5125045;27;20054;-86
2021/04/30 10:46:22;;;;;;;2.72;0.65;;;;;;;28.40;28.76;93014.06;5128203;27;20054;-87
2021/04/30 10:49:16;;;;;;;3.35;0.50;;;;;;;28.10;28.89;93019.47;5129077;27;20047;-87
2021/04/30 10:51:44;;;;;;;4.70;0.90;;;;;;;28.35;28.78;93011.63;5126128;27;20047;-87
2021/04/30 10:54:23;;;;;;;1.95;0.50;;;;;;;28.80;27.97;93007.41;5127827;27;20062;-86
2021/04/30 10:56:57;;;;;;;3.05;1.15;;;;;;;28.70;29.19;92997.25;5128015;27;20096;-85
2021/04/30 10:59:26;;;;;;;2.42;0.60;;;;;;;28.78;29.22;92985.81;5129799;27;20047;-87
2021/04/30 11:01:58;;;;;;;2.67;0.95;;;;;;;29.09;27.60;92992.44;5131558;27;20084;-85
2021/04/30 11:04:26;;;;;;;1.98;1.10;;;;;;;29.16;27.80;93005.88;5131753;27;20126;-88
2021/04/30 11:06:53;;;;;;;4.28;0.60;;;;;;;28.56;27.77;92995.72;5132745;27;20084;-88
2021/04/30 11:09:35;;;;;;;3.33;0.70;;;;;;;28.31;27.99;92952.66;5133155;27;20078;-88
2021/04/30 11:12:19;;;;;;;2.97;0.65;;;;;;;28.98;28.37;92994.00;5132289;27;20043;-88
2021/04/30 11:14:57;;;;;;;5.25;0.73;;;;;;;28.57;28.85;92980.63;5134070;27;20053;-88
2021/04/30 11:17:48;;;;;;;1.98;0.80;;;;;;;28.10;28.82;92940.25;5134254;27;20070;-88
2021/04/30 11:20:19;;;;;;;1.48;0.80;;;;;;;28.46;28.75;92980.28;5133705;27;20043;-90
2021/04/30 11:23:18;;;;;;;1.98;0.98;;;;;;;28.36;28.54;92944.50;5132782;27;20906;-89
2021/04/30 11:26:05;;;;;;;3.22;0.88;;;;;;;28.57;28.69;92972.69;5132282;27;20080;-88
2021/04/30 11:29:09;;;;;;;2.00;0.63;;;;;;;28.41;28.61;92971.47;5133560;27;20095;-87
2021/04/30 11:31:45;;;;;;;1.80;0.65;;;;;;;28.48;28.80;92973.59;5133881;27;20051;-87
2021/04/30 11:34:22;;;;;;;3.90;1.08;;;;;;;28.58;29.14;92968.94;5133861;27;20051;-90
2021/04/30 11:36:57;;;;;;;6.40;1.30;;;;;;;28.52;28.76;92937.47;5133759;27;20044;-87
2021/04/30 11:39:27;;;;;;;2.03;0.70;;;;;;;28.84;27.00;92931.63;5133932;27;20860;-87
2021/04/30 11:41:58;;;;;;;3.97;1.20;;;;;;;29.32;27.95;92960.22;5133536;27;20084;-86